createdAt,value
2019-02-12T05:15:14.341Z,83.41
2019-02-12T05:16:48.489Z,84.14
2019-02-12T05:18:22.298Z,81.21
2019-02-12T05:19:56.169Z,81.01
2019-02-12T05:21:30.049Z,80.21
2019-02-12T05:23:04.144Z,82.41
2019-02-12T05:24:38.386Z,81.38
2019-02-12T05:26:12.396Z,81.94
2019-02-12T05:27:46.394Z,81.74
2019-02-12T05:29:21.328Z,83.64
2019-02-12T05:30:55.230Z,83.80
2019-02-12T05:32:29.431Z,84.27
2019-02-12T05:34:03.236Z,83.87
2019-02-12T05:35:37.117Z,83.09
2019-02-12T05:37:10.993Z,82.96
2019-02-12T05:38:45.246Z,81.20
2019-02-12T05:40:21.094Z,83.63
2019-02-12T05:41:53.854Z,83.83
2019-02-12T05:43:28.879Z,83.88
2019-02-12T05:45:02.986Z,83.61
2019-02-12T05:46:36.890Z,82.04
2019-02-12T05:48:11.833Z,83.44
2019-02-12T05:49:45.676Z,83.74
2019-02-12T05:51:19.640Z,83.44
2019-02-12T05:52:55.217Z,81.08
2019-02-12T05:54:29.479Z,82.37
2019-02-12T05:56:03.402Z,83.66
2019-02-12T05:57:37.496Z,83.87
2019-02-12T05:59:11.506Z,84.45
2019-02-12T06:00:46.227Z,83.71
2019-02-12T06:02:21.363Z,82.84
2019-02-12T06:03:56.488Z,84.43
2019-02-12T06:05:36.228Z,84.54
2019-02-12T06:07:11.140Z,81.58
2019-02-12T06:08:44.957Z,84.28
2019-02-12T06:10:18.961Z,85.13
2019-02-12T06:11:52.841Z,85.11
2019-02-12T06:13:26.777Z,83.70
2019-02-12T06:15:00.667Z,81.91
2019-02-12T06:16:34.765Z,84.57
2019-02-12T06:18:09.600Z,84.89
2019-02-12T06:19:43.509Z,83.06
2019-02-12T06:21:18.630Z,82.10
2019-02-12T06:22:52.747Z,83.91
2019-02-12T06:24:27.049Z,84.69
2019-02-12T06:26:01.083Z,84.39
2019-02-12T06:27:36.193Z,84.81
2019-02-12T06:29:10.087Z,85.36
2019-02-12T06:30:44.144Z,85.51
2019-02-12T06:32:18.204Z,85.34
2019-02-12T06:33:51.986Z,85.17
2019-02-12T06:35:25.813Z,84.83
2019-02-12T06:37:00.809Z,85.08
2019-02-12T06:38:35.644Z,85.24
2019-02-12T06:40:09.726Z,84.67
2019-02-12T06:41:43.662Z,85.84
2019-02-12T06:43:18.691Z,85.36
2019-02-12T06:44:52.468Z,85.80
2019-02-12T06:46:26.306Z,85.46
2019-02-12T06:48:00.396Z,85.92
2019-02-12T06:49:34.195Z,85.00
2019-02-12T06:51:08.103Z,85.62
2019-02-12T06:52:42.102Z,85.79
2019-02-12T06:54:16.207Z,85.17
2019-02-12T06:55:50.110Z,85.63
2019-02-12T06:57:25.143Z,85.61
2019-02-12T06:58:59.850Z,85.64
2019-02-12T07:00:33.705Z,85.64
2019-02-12T07:02:08.795Z,83.96
2019-02-12T07:03:50.871Z,85.40
2019-02-12T07:05:24.999Z,83.92
2019-02-12T07:07:11.460Z,85.26
2019-02-12T07:09:56.668Z,85.81
2019-02-12T07:11:50.859Z,85.70
2019-02-12T07:14:01.421Z,85.72
2019-02-12T07:15:42.657Z,85.98
2019-02-12T07:19:48.651Z,84.05
2019-02-12T07:21:34.840Z,83.88
2019-02-12T07:24:19.810Z,85.38
2019-02-12T07:26:11.231Z,85.24
2019-02-12T07:28:59.345Z,85.17
2019-02-12T07:30:50.681Z,85.44
2019-02-12T07:32:39.324Z,84.31
2019-02-12T07:35:13.748Z,85.09
2019-02-12T07:38:07.090Z,82.34
2019-02-12T07:40:00.662Z,82.13
2019-02-12T07:42:00.057Z,80.00
2019-02-12T07:44:55.081Z,82.40
2019-02-12T07:46:55.305Z,83.90
2019-02-12T07:48:40.830Z,82.58
2019-02-12T07:50:40.893Z,80.01
2019-02-12T07:52:29.438Z,81.73
2019-02-12T07:54:18.902Z,82.93
2019-02-12T07:58:09.310Z,83.61
2019-02-12T08:00:01.434Z,81.58
2019-02-12T08:01:53.854Z,77.60
2019-02-12T08:03:41.790Z,77.42
2019-02-12T08:05:30.966Z,80.52
2019-02-12T08:07:23.710Z,77.63
2019-02-12T08:09:44.465Z,77.39
2019-02-12T08:11:33.571Z,75.10
2019-02-12T08:13:33.723Z,79.04
2019-02-12T08:15:18.742Z,80.46
2019-02-12T08:17:21.120Z,79.94
2019-02-12T08:20:05.680Z,76.26
2019-02-12T08:21:49.690Z,77.49
2019-02-12T08:23:41.208Z,80.49
2019-02-12T08:25:26.079Z,79.93
2019-02-12T08:27:15.266Z,76.50
2019-02-12T08:29:02.481Z,79.68
2019-02-12T08:32:52.278Z,75.84
2019-02-12T08:34:45.412Z,77.64
2019-02-12T08:36:28.739Z,80.54
2019-02-12T08:38:30.182Z,79.33
2019-02-12T08:40:23.747Z,74.90
2019-02-12T08:42:17.894Z,77.06
2019-02-12T08:44:13.649Z,70.33
2019-02-12T08:46:14.579Z,78.33
2019-02-12T08:49:02.322Z,80.57
2019-02-12T08:50:58.739Z,78.61
2019-02-12T08:52:48.605Z,79.47
2019-02-12T08:54:37.909Z,77.13
2019-02-12T08:58:26.855Z,78.37
2019-02-12T09:00:10.859Z,73.42
2019-02-12T09:02:06.278Z,71.66
2019-02-12T09:03:53.589Z,74.51
2019-02-12T09:06:16.652Z,75.43
2019-02-12T09:07:59.581Z,76.31
2019-02-12T09:09:50.665Z,76.96
2019-02-12T09:12:16.508Z,73.61
2019-02-12T09:14:13.832Z,75.25
2019-02-12T09:16:00.312Z,77.59
2019-02-12T09:18:00.483Z,75.01
2019-02-12T09:19:43.797Z,75.93
2019-02-12T09:22:28.670Z,76.93
2019-02-12T09:25:26.231Z,75.58
2019-02-12T09:27:16.308Z,72.26
2019-02-12T09:29:04.282Z,72.98
2019-02-12T09:30:51.226Z,76.83
2019-02-12T09:33:04.473Z,72.80
2019-02-12T09:35:16.991Z,72.37
2019-02-12T09:37:03.284Z,74.82
2019-02-12T09:40:06.369Z,75.46
2019-02-12T09:41:52.232Z,74.95
2019-02-12T09:43:42.237Z,68.79
2019-02-12T09:45:27.398Z,69.47
2019-02-12T09:47:14.816Z,72.64
2019-02-12T09:49:12.887Z,70.34
2019-02-12T09:50:58.154Z,71.59
2019-02-12T09:52:46.168Z,69.55
2019-02-12T09:54:36.667Z,72.30
2019-02-12T09:56:26.970Z,72.23
2019-02-12T10:00:15.812Z,73.22
2019-02-12T10:02:57.757Z,72.37
2019-02-12T10:05:13.494Z,67.03
2019-02-12T10:06:59.610Z,66.10
2019-02-12T10:08:46.753Z,70.18
2019-02-12T10:12:35.893Z,71.83
2019-02-12T10:14:21.940Z,70.50
2019-02-12T10:17:02.955Z,71.66
2019-02-12T10:19:10.128Z,73.61
2019-02-12T10:21:14.725Z,64.80
2019-02-12T10:23:06.568Z,73.49
2019-02-12T10:24:56.331Z,67.49
2019-02-12T10:26:33.332Z,70.61
2019-02-12T10:28:15.204Z,70.89
2019-02-12T10:30:04.386Z,69.32
2019-02-12T10:31:45.181Z,67.35
2019-02-12T10:33:20.183Z,67.94
2019-02-12T10:34:56.124Z,65.46
2019-02-12T10:36:29.920Z,68.15
2019-02-12T10:38:03.724Z,68.62
2019-02-12T10:39:38.628Z,68.73
2019-02-12T10:43:00.894Z,68.10
2019-02-12T10:44:34.798Z,64.97
2019-02-12T10:46:09.018Z,67.69
2019-02-12T10:47:43.327Z,67.66
2019-02-12T10:49:18.143Z,69.96
2019-02-12T10:50:52.037Z,68.68
2019-02-12T10:52:26.151Z,65.29
2019-02-12T10:54:00.341Z,68.28
2019-02-12T10:55:34.422Z,64.50
2019-02-12T10:57:08.086Z,63.77
2019-02-12T10:58:42.068Z,65.06
2019-02-12T11:00:16.993Z,67.35
2019-02-12T11:01:50.865Z,66.51
2019-02-12T11:03:25.207Z,67.08
2019-02-12T11:04:59.075Z,65.60
2019-02-12T11:06:32.993Z,65.11
2019-02-12T11:08:06.895Z,63.34
2019-02-12T11:09:40.875Z,68.05
2019-02-12T11:11:14.930Z,65.57
2019-02-12T11:12:48.826Z,66.61
2019-02-12T11:14:22.573Z,67.19
2019-02-12T11:15:56.781Z,64.31
2019-02-12T11:17:31.051Z,66.46
2019-02-12T11:19:05.742Z,66.26
2019-02-12T11:20:39.528Z,68.07
2019-02-12T11:22:12.648Z,64.77
2019-02-12T11:23:46.964Z,62.32
2019-02-12T11:25:21.865Z,65.42
2019-02-12T11:26:54.763Z,66.51
2019-02-12T11:28:28.871Z,63.43
2019-02-12T11:30:02.876Z,62.89
2019-02-12T11:31:36.967Z,64.39
2019-02-12T11:33:11.142Z,59.65
2019-02-12T11:34:44.874Z,59.84
2019-02-12T11:36:18.919Z,59.81
2019-02-12T11:37:51.814Z,59.02
2019-02-12T11:39:25.868Z,60.19
2019-02-12T11:40:59.643Z,58.41
2019-02-12T11:42:33.991Z,59.72
2019-02-12T11:44:08.105Z,58.76
2019-02-12T11:45:41.893Z,58.34
2019-02-12T11:47:15.800Z,55.30
2019-02-12T11:48:49.709Z,60.08
2019-02-12T11:50:24.554Z,59.90
2019-02-12T11:51:59.816Z,56.69
2019-02-12T11:53:33.358Z,60.49
2019-02-12T11:55:07.085Z,61.54
2019-02-12T11:56:41.059Z,59.47
2019-02-12T11:58:13.918Z,55.96
2019-02-12T11:59:47.942Z,54.90
2019-02-12T12:01:24.814Z,58.50
2019-02-12T12:02:58.696Z,54.71
2019-02-12T12:04:32.698Z,54.85
2019-02-12T12:06:06.727Z,56.19
2019-02-12T12:07:40.737Z,56.63
2019-02-12T12:09:14.948Z,56.27
2019-02-12T12:10:48.900Z,55.60
2019-02-12T12:12:21.873Z,53.52
2019-02-12T12:13:55.705Z,52.83
2019-02-12T12:15:30.690Z,55.26
2019-02-12T12:17:04.596Z,53.68
2019-02-12T12:18:38.641Z,59.27
2019-02-12T12:20:12.554Z,54.03
2019-02-12T12:21:46.522Z,52.08
2019-02-12T12:23:20.369Z,53.42
2019-02-12T12:24:53.673Z,55.21
2019-02-12T12:26:26.530Z,51.54
2019-02-12T12:28:00.355Z,54.61
2019-02-12T12:29:33.326Z,52.48
2019-02-12T12:31:07.376Z,52.32
2019-02-12T12:32:40.446Z,52.56
2019-02-12T12:34:14.549Z,50.98
2019-02-12T12:35:48.494Z,50.46
2019-02-12T12:37:22.619Z,51.04
2019-02-12T12:38:56.396Z,52.01
2019-02-12T12:40:30.425Z,55.46
2019-02-12T12:42:04.139Z,52.06
2019-02-12T12:43:37.100Z,49.16
2019-02-12T12:45:11.099Z,50.00
2019-02-12T12:46:45.008Z,50.17
2019-02-12T12:48:18.693Z,46.69
2019-02-12T12:49:52.496Z,48.46
2019-02-12T12:51:26.075Z,50.57
2019-02-12T12:52:58.912Z,51.35
2019-02-12T12:54:31.637Z,47.81
2019-02-12T12:56:05.734Z,48.15
2019-02-12T12:57:41.962Z,50.61
2019-02-12T12:59:13.661Z,50.78
2019-02-12T13:00:46.685Z,51.04
2019-02-12T13:02:20.478Z,49.41
2019-02-12T13:03:54.433Z,48.49
2019-02-12T13:05:28.243Z,46.86
2019-02-12T13:07:01.920Z,46.27
2019-02-12T13:08:35.565Z,48.90
2019-02-12T13:10:08.594Z,50.42
2019-02-12T13:11:42.328Z,46.39
2019-02-12T13:13:17.015Z,48.72
2019-02-12T13:14:49.006Z,49.88
2019-02-12T13:16:22.680Z,47.64
2019-02-12T13:17:56.429Z,47.01
2019-02-12T13:19:30.416Z,51.33
2019-02-12T13:21:04.357Z,49.44
2019-02-12T13:22:38.291Z,46.89
2019-02-12T13:24:12.026Z,46.89
2019-02-12T13:25:45.894Z,47.23
2019-02-12T13:27:19.986Z,47.79
2019-02-12T13:28:52.809Z,46.86
2019-02-12T13:30:29.198Z,49.00
2019-02-12T13:32:03.162Z,47.02
2019-02-12T13:33:36.953Z,45.80
2019-02-12T13:35:09.873Z,47.51
2019-02-12T13:36:43.006Z,45.33
2019-02-12T13:38:17.058Z,46.44
2019-02-12T13:39:51.595Z,45.49
2019-02-12T13:41:25.526Z,46.48
2019-02-12T13:42:58.447Z,45.84
2019-02-12T13:44:33.051Z,46.48
2019-02-12T13:46:06.005Z,44.56
2019-02-12T13:47:38.933Z,47.25
2019-02-12T13:49:12.791Z,46.47
2019-02-12T13:50:46.708Z,45.69
2019-02-12T13:52:20.302Z,46.01
2019-02-12T13:53:53.306Z,48.98
2019-02-12T13:55:27.421Z,46.64
2019-02-12T13:57:01.192Z,50.11
2019-02-12T13:58:35.058Z,48.40
2019-02-12T14:00:08.904Z,51.05
2019-02-12T14:01:41.886Z,46.43
2019-02-12T14:03:22.036Z,49.31
2019-02-12T14:04:48.939Z,47.04
2019-02-12T14:06:22.679Z,48.76
2019-02-12T14:07:56.612Z,53.77
2019-02-12T14:09:30.399Z,52.96
2019-02-12T14:11:04.140Z,51.34
2019-02-12T14:12:37.826Z,51.75
2019-02-12T14:14:11.587Z,53.35
2019-02-12T14:15:44.636Z,55.58
2019-02-12T14:17:18.542Z,55.44
2019-02-12T14:18:52.333Z,52.37
2019-02-12T14:20:26.201Z,52.64
2019-02-12T14:22:00.144Z,54.49
2019-02-12T14:23:33.051Z,53.33
2019-02-12T14:25:06.074Z,55.54
2019-02-12T14:26:39.909Z,56.06
2019-02-12T14:28:12.863Z,54.74
2019-02-12T14:29:46.707Z,57.25
2019-02-12T14:31:20.354Z,55.67
2019-02-12T14:32:54.271Z,58.87
2019-02-12T14:34:29.166Z,59.59
2019-02-12T14:36:02.947Z,55.45
2019-02-12T14:37:35.840Z,58.59
2019-02-12T14:39:10.082Z,60.42
2019-02-12T14:40:44.056Z,58.54
2019-02-12T14:42:17.192Z,57.93
2019-02-12T14:43:50.967Z,58.85
2019-02-12T14:45:25.083Z,52.79
2019-02-12T14:46:59.179Z,58.66
2019-02-12T14:48:33.179Z,58.20
2019-02-12T14:50:06.065Z,58.27
2019-02-12T14:51:40.195Z,55.13
2019-02-12T14:53:13.995Z,54.69
2019-02-12T14:54:47.873Z,54.91
2019-02-12T14:56:20.670Z,57.83
2019-02-12T14:57:53.730Z,54.52
2019-02-12T14:59:27.866Z,57.52
2019-02-12T15:01:02.965Z,54.50
2019-02-12T15:02:36.594Z,59.70
2019-02-12T15:04:10.563Z,56.31
2019-02-12T15:05:44.877Z,59.74
2019-02-12T15:07:19.938Z,61.45
2019-02-12T15:08:53.106Z,60.84
2019-02-12T15:10:29.169Z,59.91
2019-02-12T15:12:02.949Z,58.22
2019-02-12T15:13:36.846Z,61.25
2019-02-12T15:15:10.682Z,61.09
2019-02-12T15:16:44.446Z,60.98
2019-02-12T15:18:18.246Z,56.91
2019-02-12T15:19:52.181Z,61.30
2019-02-12T15:21:25.872Z,62.31
2019-02-12T15:23:00.082Z,62.59
2019-02-12T15:24:33.778Z,63.30
2019-02-12T15:26:06.771Z,61.18
2019-02-12T15:27:41.685Z,60.57
2019-02-12T15:29:15.822Z,64.85
2019-02-12T15:30:49.906Z,64.92
2019-02-12T15:32:22.719Z,66.06
2019-02-12T15:33:56.657Z,65.91
2019-02-12T15:35:31.709Z,65.75
2019-02-12T15:37:04.591Z,67.00
2019-02-12T15:38:39.392Z,67.92
2019-02-12T15:40:12.442Z,68.09
2019-02-12T15:41:45.457Z,68.09
2019-02-12T15:43:18.359Z,68.54
2019-02-12T15:44:52.249Z,68.87
2019-02-12T15:46:26.445Z,69.32
2019-02-12T15:48:00.469Z,69.36
2019-02-12T15:49:34.270Z,69.99
2019-02-12T15:51:08.467Z,70.43
2019-02-12T15:52:42.686Z,70.74
2019-02-12T15:54:16.866Z,70.81
2019-02-12T15:55:51.571Z,71.29
2019-02-12T15:57:27.039Z,71.34
2019-02-12T15:58:58.869Z,71.39
2019-02-12T16:00:33.946Z,71.32
2019-02-12T16:02:07.125Z,71.60
2019-02-12T16:03:41.235Z,68.73
2019-02-12T16:05:15.298Z,71.98
2019-02-12T16:06:49.447Z,69.99
2019-02-12T16:08:23.554Z,69.31
2019-02-12T16:09:58.385Z,69.01
2019-02-12T16:11:32.253Z,65.43
2019-02-12T16:13:05.445Z,71.29
2019-02-12T16:14:40.185Z,71.37
2019-02-12T16:16:13.302Z,68.31
2019-02-12T16:17:47.278Z,69.27
2019-02-12T16:19:21.253Z,66.07
2019-02-12T16:20:55.284Z,71.29
2019-02-12T16:22:29.900Z,68.81
2019-02-12T16:24:04.528Z,63.97
2019-02-12T16:25:38.405Z,68.54
2019-02-12T16:27:12.211Z,65.84
2019-02-12T16:28:46.025Z,65.66
2019-02-12T16:30:20.928Z,69.55
2019-02-12T16:31:54.957Z,66.06
2019-02-12T16:33:29.778Z,66.06
2019-02-12T16:35:03.682Z,71.14
2019-02-12T16:36:37.717Z,70.72
2019-02-12T16:38:11.791Z,65.20
2019-02-12T16:39:46.850Z,65.26
2019-02-12T16:41:21.747Z,68.06
2019-02-12T16:42:55.847Z,69.15
2019-02-12T16:44:29.897Z,68.42
2019-02-12T16:46:11.145Z,66.82
2019-02-12T16:47:46.129Z,68.38
2019-02-12T16:49:21.987Z,68.19
2019-02-12T16:50:56.226Z,64.71
2019-02-12T16:52:30.137Z,68.31
2019-02-12T16:54:04.233Z,64.46
2019-02-12T16:55:38.351Z,64.21
2019-02-12T16:57:12.299Z,67.33
2019-02-12T16:58:46.463Z,66.41
2019-02-12T17:00:23.446Z,66.14
2019-02-12T17:01:57.652Z,63.08
2019-02-12T17:03:31.899Z,65.20
2019-02-12T17:05:06.153Z,63.51
2019-02-12T17:06:40.009Z,66.13
2019-02-12T17:08:14.171Z,68.37
2019-02-12T17:09:52.290Z,64.52
2019-02-12T17:11:21.252Z,64.88
2019-02-12T17:12:55.387Z,62.66
2019-02-12T17:14:29.612Z,65.02
2019-02-12T17:16:03.791Z,63.59
2019-02-12T17:17:39.626Z,62.55
2019-02-12T17:19:15.318Z,63.62
2019-02-12T17:20:49.482Z,66.50
2019-02-12T17:22:24.290Z,65.11
2019-02-12T17:23:58.204Z,64.50
2019-02-12T17:25:34.031Z,63.40
2019-02-12T17:27:07.957Z,63.33
2019-02-12T17:28:42.105Z,62.99
2019-02-12T17:30:16.478Z,63.90
2019-02-12T17:31:51.217Z,65.60
2019-02-12T17:33:25.259Z,66.32
2019-02-12T17:35:01.374Z,66.82
2019-02-12T17:36:34.035Z,66.11
2019-02-12T17:38:07.703Z,67.45
2019-02-12T17:39:41.479Z,66.06
2019-02-12T17:41:15.443Z,66.31
2019-02-12T17:42:49.338Z,66.01
2019-02-12T17:44:23.149Z,69.50
2019-02-12T17:45:57.124Z,66.29
2019-02-12T17:47:31.045Z,67.93
2019-02-12T17:49:05.251Z,64.39
2019-02-12T17:50:39.178Z,66.98
2019-02-12T17:52:13.969Z,65.74
2019-02-12T17:53:47.776Z,66.98
2019-02-12T17:55:22.656Z,68.14
2019-02-12T17:56:56.711Z,67.67
2019-02-12T17:58:31.642Z,68.86
2019-02-12T18:00:05.943Z,66.25
2019-02-12T18:01:40.957Z,69.71
2019-02-12T18:03:14.979Z,67.21
2019-02-12T18:04:48.643Z,68.83
2019-02-12T18:06:22.529Z,66.04
2019-02-12T18:07:56.603Z,67.20
2019-02-12T18:09:30.896Z,66.36
2019-02-12T18:11:04.671Z,69.19
2019-02-12T18:12:38.697Z,66.54
2019-02-12T18:14:12.886Z,69.07
2019-02-12T18:15:46.814Z,69.88
2019-02-12T18:17:21.039Z,67.96
2019-02-12T18:18:55.229Z,67.92
2019-02-12T18:20:29.540Z,69.06
2019-02-12T18:22:03.854Z,68.79
2019-02-12T18:23:38.352Z,65.97
2019-02-12T18:25:12.484Z,70.44
2019-02-12T18:26:46.536Z,69.17
2019-02-12T18:28:21.370Z,71.43
2019-02-12T18:29:54.959Z,71.75
2019-02-12T18:31:29.015Z,71.63
2019-02-12T18:33:03.023Z,68.11
2019-02-12T18:34:37.977Z,68.86
2019-02-12T18:36:12.149Z,70.34
2019-02-12T18:37:46.562Z,68.05
2019-02-12T18:39:22.322Z,68.30
2019-02-12T18:40:56.619Z,66.69
2019-02-12T18:42:30.367Z,68.38
2019-02-12T18:44:03.380Z,68.12
2019-02-12T18:45:38.449Z,65.31
2019-02-12T18:47:12.262Z,67.09
2019-02-12T18:48:45.091Z,67.19
2019-02-12T18:50:19.052Z,65.65
2019-02-12T18:51:52.892Z,65.11
2019-02-12T18:53:26.627Z,66.25
2019-02-12T18:55:00.662Z,66.47
2019-02-12T18:56:41.520Z,65.51
2019-02-12T18:58:08.493Z,64.81
2019-02-12T18:59:42.477Z,63.73
2019-02-12T19:01:16.243Z,67.00
2019-02-12T19:02:50.175Z,66.98
2019-02-12T19:04:23.924Z,65.61
2019-02-12T19:05:57.839Z,66.07
2019-02-12T19:07:32.716Z,66.62
2019-02-12T19:09:06.863Z,65.34
2019-02-12T19:10:40.866Z,67.33
2019-02-12T19:12:15.791Z,65.30
2019-02-12T19:13:50.442Z,67.87
2019-02-12T19:15:25.555Z,66.06
2019-02-12T19:16:59.212Z,65.79
2019-02-12T19:18:38.354Z,66.10
2019-02-12T19:20:12.197Z,67.26
2019-02-12T19:21:45.040Z,65.13
2019-02-12T19:23:19.146Z,67.60
2019-02-12T19:24:51.938Z,66.28
2019-02-12T19:26:25.820Z,65.69
2019-02-12T19:27:59.722Z,67.16
2019-02-12T19:29:32.614Z,64.09
2019-02-12T19:31:05.973Z,65.82
2019-02-12T19:32:40.058Z,65.84
2019-02-12T19:34:14.020Z,64.91
2019-02-12T19:35:47.755Z,64.97
2019-02-12T19:37:21.719Z,66.92
2019-02-12T19:38:55.840Z,65.85
2019-02-12T19:40:30.794Z,66.84
2019-02-12T19:42:06.345Z,65.12
2019-02-12T19:43:40.400Z,65.55
2019-02-12T19:45:14.354Z,66.21
2019-02-12T19:46:48.706Z,67.57
2019-02-12T19:48:23.441Z,67.92
2019-02-12T19:49:57.319Z,68.78
2019-02-12T19:51:32.155Z,68.87
2019-02-12T19:53:07.066Z,70.12
2019-02-12T19:54:42.202Z,70.17
2019-02-12T19:56:16.962Z,71.21
2019-02-12T19:57:51.968Z,71.15
2019-02-12T19:59:26.588Z,71.36
2019-02-12T20:01:01.555Z,72.76
2019-02-12T20:02:35.371Z,72.70
2019-02-12T20:04:09.387Z,73.13
2019-02-12T20:05:43.626Z,73.47
2019-02-12T20:07:17.503Z,73.61
2019-02-12T20:08:52.763Z,73.70
2019-02-12T20:10:27.560Z,73.82
2019-02-12T20:12:03.643Z,74.29
2019-02-12T20:13:38.674Z,74.19
2019-02-12T20:15:13.398Z,73.93
2019-02-12T20:16:47.329Z,73.55
2019-02-12T20:18:22.140Z,74.03
2019-02-12T20:19:55.105Z,74.32
2019-02-12T20:21:28.803Z,74.43
2019-02-12T20:23:02.624Z,74.91
2019-02-12T20:24:36.229Z,74.79
2019-02-12T20:26:11.216Z,74.98
2019-02-12T20:27:47.060Z,75.42
2019-02-12T20:29:21.173Z,75.97
2019-02-12T20:30:54.973Z,75.41
2019-02-12T20:32:29.090Z,76.74
2019-02-12T20:34:04.039Z,77.14
2019-02-12T20:35:38.010Z,77.20
2019-02-12T20:37:12.320Z,76.25
2019-02-12T20:38:47.474Z,75.84
2019-02-12T20:40:23.188Z,75.93
2019-02-12T20:41:57.303Z,76.32
2019-02-12T20:43:31.821Z,76.12
2019-02-12T20:45:06.139Z,75.90
2019-02-12T20:46:40.547Z,76.10
2019-02-12T20:48:13.593Z,75.46
2019-02-12T20:49:47.714Z,76.31
2019-02-12T20:51:21.630Z,76.37
2019-02-12T20:52:55.674Z,76.45
2019-02-12T20:54:29.546Z,76.29
2019-02-12T20:56:03.766Z,76.32
2019-02-12T20:57:37.501Z,76.27
2019-02-12T20:59:11.353Z,76.36
2019-02-12T21:00:45.359Z,76.13
2019-02-12T21:02:21.192Z,76.24
2019-02-12T21:03:55.211Z,76.11
2019-02-12T21:05:31.141Z,76.40
2019-02-12T21:07:05.072Z,76.54
2019-02-12T21:08:39.058Z,77.08
2019-02-12T21:10:12.858Z,76.84
2019-02-12T21:11:46.969Z,77.18
2019-02-12T21:13:21.987Z,76.84
2019-02-12T21:14:54.883Z,76.71
2019-02-12T21:16:28.172Z,77.29
2019-02-12T21:18:02.995Z,76.98
2019-02-12T21:19:36.884Z,76.81
2019-02-12T21:21:11.002Z,76.91
2019-02-12T21:22:44.998Z,76.78
2019-02-12T21:24:18.912Z,76.64
2019-02-12T21:25:54.050Z,77.02
2019-02-12T21:27:26.749Z,76.94
2019-02-12T21:28:59.784Z,76.87
2019-02-12T21:30:36.978Z,77.11
2019-02-12T21:32:11.063Z,77.28
2019-02-12T21:33:45.191Z,77.45
2019-02-12T21:35:21.027Z,78.07
2019-02-12T21:36:55.270Z,78.20
2019-02-12T21:38:30.078Z,77.86
2019-02-12T21:40:04.999Z,77.91
2019-02-12T21:41:39.011Z,78.51
2019-02-12T21:43:14.233Z,77.92
2019-02-12T21:44:50.094Z,78.70
2019-02-12T21:46:23.710Z,78.25
2019-02-12T21:47:57.565Z,78.47
2019-02-12T21:49:31.491Z,77.89
2019-02-12T21:51:05.602Z,78.34
2019-02-12T21:52:39.808Z,78.28
2019-02-12T21:54:13.909Z,78.69
2019-02-12T21:55:48.018Z,78.51
2019-02-12T21:57:22.068Z,78.44
2019-02-12T21:58:55.894Z,78.82
2019-02-12T22:00:32.004Z,78.90
2019-02-12T22:02:06.127Z,78.32
2019-02-12T22:03:39.812Z,78.81
2019-02-12T22:05:13.990Z,79.25
2019-02-12T22:06:48.605Z,79.34
2019-02-12T22:08:21.336Z,79.64
2019-02-12T22:09:55.063Z,79.93
2019-02-12T22:11:28.878Z,80.00
2019-02-12T22:13:01.865Z,79.49
2019-02-12T22:14:36.155Z,79.59
2019-02-12T22:16:10.418Z,79.48
2019-02-12T22:17:44.573Z,79.41
2019-02-12T22:19:18.419Z,80.26
2019-02-12T22:20:52.476Z,80.78
2019-02-12T22:22:26.276Z,80.28
2019-02-12T22:24:00.100Z,80.83
2019-02-12T22:25:33.704Z,80.96
2019-02-12T22:27:06.390Z,81.55
2019-02-12T22:28:39.433Z,80.64
2019-02-12T22:30:13.206Z,81.93
2019-02-12T22:31:47.158Z,80.88
2019-02-12T22:33:21.342Z,81.50
2019-02-12T22:34:54.457Z,81.93
2019-02-12T22:36:28.334Z,81.85
2019-02-12T22:38:02.331Z,81.18
2019-02-12T22:39:36.257Z,81.51
2019-02-12T22:41:10.264Z,81.65
2019-02-12T22:42:45.168Z,82.04
2019-02-12T22:44:18.937Z,81.82
2019-02-12T22:45:53.090Z,82.23
2019-02-12T22:47:27.386Z,82.11
2019-02-12T22:49:01.189Z,81.02
2019-02-12T22:50:35.294Z,80.49
2019-02-12T22:52:09.214Z,80.87
2019-02-12T22:53:43.323Z,81.18
2019-02-12T22:55:17.429Z,81.17
2019-02-12T22:56:52.291Z,82.56
2019-02-12T22:58:26.073Z,82.68
2019-02-12T23:00:00.251Z,81.41
2019-02-12T23:01:40.171Z,82.66
2019-02-12T23:03:14.636Z,83.21
2019-02-12T23:04:48.525Z,83.37
2019-02-12T23:06:22.809Z,83.31
2019-02-12T23:07:57.377Z,83.44
2019-02-12T23:09:32.363Z,83.81
2019-02-12T23:11:06.324Z,83.62
2019-02-12T23:12:40.350Z,84.03
2019-02-12T23:14:14.275Z,84.32
2019-02-12T23:15:48.505Z,84.34
2019-02-12T23:17:22.259Z,84.41
2019-02-12T23:18:56.480Z,83.94
2019-02-12T23:20:29.422Z,84.20
2019-02-12T23:22:03.408Z,83.81
2019-02-12T23:23:36.468Z,84.78
2019-02-12T23:25:10.156Z,84.24
2019-02-12T23:26:43.143Z,83.92
2019-02-12T23:28:16.215Z,85.36
2019-02-12T23:29:50.006Z,82.99
2019-02-12T23:31:23.916Z,84.06
2019-02-12T23:32:56.756Z,84.57
2019-02-12T23:34:30.607Z,84.66
2019-02-12T23:36:04.521Z,84.36
2019-02-12T23:37:37.183Z,84.11
2019-02-12T23:39:11.248Z,84.02
2019-02-12T23:40:45.190Z,84.72
2019-02-12T23:42:17.932Z,85.38
2019-02-12T23:43:50.757Z,85.14
2019-02-12T23:45:24.626Z,85.02
2019-02-12T23:46:58.448Z,85.11
2019-02-12T23:48:32.288Z,84.74
2019-02-12T23:50:05.225Z,84.84
2019-02-12T23:51:39.012Z,85.05
2019-02-12T23:53:12.822Z,84.62
2019-02-12T23:54:46.561Z,84.49
2019-02-12T23:56:20.438Z,84.68
2019-02-12T23:57:54.438Z,84.96
2019-02-12T23:59:28.221Z,85.27
